Latest Weather Observations for Essendon Airport

IDV60801

Issued at 2:52 am EST Thursday 28 May 2020 (issued every 10 minutes, with the page automatically refreshed every 10 minutes)

About weather observations | Map of weather stations | Latest weather observations for VIC | Other Formats
Station Details ID: 086038 Name: ESSENDON AIRPORT Lat: -37.73 Lon: 144.91 Height: 78.4 m
Data from the previous 72 hours. | See also: Recent months at Essendon Airport
Date/Time
EST
Temp
°C
App
Temp
°C
Dew
Point
°C
Rel
Hum
%
Delta-T
°C
Wind Press
QNH
hPa
Press
MSL
hPa
Rain since
9am
mm
Dir  Spd
km/h
Gust
km/h
Spd
kts
Gust
kts
28/02:30am 11.8 8.9 9.5 86 1.2 NNW 15 19 8 10 1019.6 1019.6 0.0
28/02:00am 11.8 8.5 9.7 87 1.1 N 17 20 9 11 1019.4 1019.4 0.0
28/01:30am 11.6 8.7 9.7 88 1.0 N 15 20 8 11 1019.4 1019.4 0.0
28/01:00am 11.7 8.8 9.8 88 1.0 N 15 20 8 11 1019.5 1019.5 0.0
28/12:30am 11.9 9.4 9.8 87 1.1 N 13 19 7 10 1019.6 1019.6 0.0
28/12:00am 11.9 9.0 9.6 86 1.2 N 15 22 8 12 1019.5 1019.5 0.0
 
Date/Time
EST
Temp
°C
App
Temp
°C
Dew
Point
°C
Rel
Hum
%
Delta-T
°C
Wind Press
QNH
hPa
Press
MSL
hPa
Rain since
9am
mm
Dir  Spd
km/h
Gust
km/h
Spd
kts
Gust
kts
27/11:30pm 12.6 10.1 9.8 83 1.4 N 13 17 7 9 1019.5 1019.5 0.0
27/11:00pm 12.7 10.3 9.9 83 1.4 N 13 17 7 9 1019.4 1019.4 0.0
27/10:30pm 12.8 9.6 9.8 82 1.5 N 17 22 9 12 1019.3 1019.3 0.0
27/10:00pm 13.1 11.0 9.9 81 1.6 N 11 17 6 9 1019.3 1019.3 0.0
27/09:30pm 13.3 10.5 10.1 81 1.7 N 15 20 8 11 1019.2 1019.2 0.0
27/09:00pm 13.3 9.8 10.1 81 1.7 N 19 30 10 16 1019.2 1019.2 0.0
27/08:30pm 13.2 10.5 10.2 82 1.6 N 15 22 8 12 1019.1 1019.1 0.0
27/08:00pm 13.4 10.3 10.2 81 1.7 N 17 24 9 13 1018.9 1018.9 0.0
27/07:30pm 13.4 10.2 10.0 80 1.8 N 17 22 9 12 1019.0 1019.0 0.0
27/07:00pm 13.7 9.6 10.1 79 1.9 N 22 30 12 16 1018.4 1018.4 0.0
27/06:30pm 13.6 9.9 10.0 79 1.9 N 20 30 11 16 1018.4 1018.4 0.0
27/06:00pm 13.7 10.1 9.9 78 2.0 N 19 26 10 14 1018.3 1018.3 0.0
27/05:30pm 14.0 10.4 9.8 76 2.2 N 19 24 10 13 1018.3 1018.3 0.0
27/05:00pm 14.2 10.4 9.8 75 2.3 N 20 28 11 15 1018.4 1018.4 0.0
27/04:30pm 14.5 10.9 9.9 74 2.4 N 19 28 10 15 1018.2 1018.2 0.0
27/04:00pm 14.9 11.3 9.9 72 2.6 N 19 28 10 15 1018.0 1018.0 0.0
27/03:30pm 15.2 11.5 10.0 71 2.7 N 20 28 11 15 1018.1 1018.1 0.0
27/03:00pm 15.4 12.3 10.2 71 2.7 N 17 26 9 14 1018.0 1018.0 0.0
27/02:30pm 14.8 9.9 9.8 72 2.6 N 26 37 14 20 1018.1 1018.1 0.0
27/02:00pm 14.6 9.6 9.6 72 2.6 N 26 33 14 18 1018.3 1018.3 0.0
27/01:30pm 14.5 10.6 9.3 71 2.7 N 20 30 11 16 1018.5 1018.5 0.0
27/01:00pm 14.5 9.0 9.1 70 2.8 N 28 41 15 22 1018.4 1018.4 0.0
27/12:30pm 14.5 8.5 8.7 68 2.9 NNE 30 41 16 22 1018.7 1018.7 0.0
27/12:00pm 14.5 9.3 8.9 69 2.8 N 26 35 14 19 1019.4 1019.4 0.0
27/11:30am 14.5 9.7 8.7 68 2.9 N 24 37 13 20 1020.0 1020.0 0.0
27/11:06am 14.2 8.5 8.2 67 3.0 N 28 46 15 25 1020.3 1020.3 0.0
27/11:00am 14.2 8.9 8.4 68 2.9 N 26 41 14 22 1020.3 1020.3 0.0
27/10:30am 14.1 8.3 8.1 67 3.0 N 28 39 15 21 1020.7 1020.7 0.0
27/10:06am 14.0 7.4 7.8 66 3.1 N 32 50 17 27 1020.7 1020.7 0.0
27/10:00am 14.1 7.5 7.9 66 3.1 N 32 46 17 25 1020.6 1020.6 0.0
27/09:30am 13.9 7.7 7.7 66 3.1 N 30 44 16 24 1020.7 1020.7 0.0
27/09:25am 13.9 7.7 7.9 67 3.0 N 30 48 16 26 1020.7 1020.7 0.0
27/09:00am 13.6 7.3 7.6 67 2.9 N 30 43 16 23 1020.6 1020.6 0.2
27/08:30am 13.1 8.0 7.8 70 2.6 N 24 35 13 19 1020.7 1020.7 0.2
27/08:00am 13.3 7.0 7.3 67 2.9 N 30 43 16 23 1020.7 1020.7 0.2
27/07:30am 12.8 8.4 7.3 69 2.7 N 20 28 11 15 1020.6 1020.6 0.2
27/07:00am 12.7 9.2 7.2 69 2.7 N 15 20 8 11 1020.6 1020.6 0.2
27/06:30am 13.4 8.9 7.0 65 3.1 N 20 28 11 15 1020.3 1020.3 0.2
27/06:00am 12.8 8.5 7.0 68 2.8 N 19 33 10 18 1020.2 1020.2 0.2
27/05:30am 12.8 8.9 7.3 69 2.7 N 17 33 9 18 1019.8 1019.8 0.2
27/05:00am 12.3 8.4 7.0 70 2.5 N 17 24 9 13 1019.8 1019.8 0.2
27/04:30am 12.6 8.1 7.1 69 2.7 N 20 32 11 17 1019.7 1019.7 0.2
27/04:00am 12.2 7.8 7.3 72 2.4 N 20 28 11 15 1019.7 1019.7 0.2
27/03:30am 11.4 7.1 7.1 75 2.1 N 19 26 10 14 1019.8 1019.8 0.2
27/03:00am 11.8 7.6 7.3 74 2.2 NNE 19 28 10 15 1019.6 1019.6 0.2
27/02:30am 11.2 7.3 7.3 77 1.9 N 17 24 9 13 1020.0 1020.0 0.2
27/02:00am 9.3 6.8 6.6 83 1.3 N 9 13 5 7 1020.4 1020.4 0.2
27/01:30am 7.8 5.8 6.4 91 0.6 ESE 6 11 3 6 1020.4 1020.4 0.2
27/01:00am 7.4 4.8 5.9 90 0.7 NE 9 11 5 6 1020.6 1020.6 0.2
27/12:30am 8.0 5.4 6.3 89 0.8 NE 9 11 5 6 1020.8 1020.8 0.2
27/12:00am 8.2 7.2 5.8 85 1.1 CALM 0 6 0 3 1021.2 1021.2 0.2
 
Date/Time
EST
Temp
°C
App
Temp
°C
Dew
Point
°C
Rel
Hum
%
Delta-T
°C
Wind Press
QNH
hPa
Press
MSL
hPa
Rain since
9am
mm
Dir  Spd
km/h
Gust
km/h
Spd
kts
Gust
kts
26/11:30pm 9.2 6.8 6.8 85 1.1 NNE 9 11 5 6 1021.6 1021.6 0.2
26/11:00pm 9.1 7.9 6.4 83 1.2 NNE 2 6 1 3 1021.5 1021.5 0.2
26/10:30pm 9.4 8.3 6.7 83 1.3 NNE 2 6 1 3 1021.6 1021.6 0.2
26/10:00pm 9.7 7.8 6.8 82 1.4 NNE 6 7 3 4 1021.9 1021.9 0.2
26/09:30pm 10.2 8.2 6.9 80 1.6 NNE 7 9 4 5 1022.0 1022.0 0.2
26/09:00pm 10.5 8.2 7.4 81 1.5 NNE 9 9 5 5 1022.2 1022.2 0.2
26/08:30pm 11.0 9.1 7.5 79 1.7 NNE 7 9 4 5 1022.1 1022.1 0.2
26/08:00pm 11.6 9.6 7.3 75 2.1 NNE 7 9 4 5 1022.2 1022.2 0.2
26/07:30pm 11.8 9.9 7.7 76 2.0 NNE 7 9 4 5 1022.1 1022.1 0.2
26/07:00pm 11.5 9.6 6.8 73 2.2 NNE 6 7 3 4 1022.1 1022.1 0.2
26/06:30pm 12.6 10.7 7.5 71 2.5 NNE 7 9 4 5 1022.1 1022.1 0.2
26/06:00pm 13.1 10.8 7.5 69 2.7 NNE 9 11 5 6 1022.0 1022.0 0.2
26/05:30pm 13.5 11.2 7.5 67 2.9 N 9 11 5 6 1021.9 1021.9 0.2
26/05:00pm 14.7 12.1 7.7 63 3.5 NNE 11 15 6 8 1021.7 1021.7 0.2
26/04:30pm 15.8 12.4 7.8 59 4.0 NNE 15 20 8 11 1021.7 1021.7 0.2
26/04:00pm 16.6 12.8 7.5 55 4.6 N 17 24 9 13 1021.7 1021.7 0.2
26/03:30pm 16.9 13.0 7.3 53 4.8 N 17 22 9 12 1021.7 1021.7 0.2
26/03:00pm 16.9 13.1 7.5 54 4.7 N 17 24 9 13 1021.6 1021.6 0.2
26/02:30pm 16.9 13.1 7.5 54 4.7 N 17 20 9 11 1021.8 1021.8 0.2
26/02:00pm 16.8 12.5 6.9 52 4.9 N 19 24 10 13 1022.1 1022.1 0.0
26/01:30pm 16.6 12.7 7.3 54 4.7 N 17 24 9 13 1022.4 1022.4 0.0
26/01:00pm 16.0 13.5 8.0 59 4.0 NNW 11 17 6 9 1022.7 1022.8 0.0
26/12:30pm 15.4 12.9 8.2 62 3.6 NE 11 15 6 8 1023.1 1023.2 0.0
26/12:00pm 14.2 11.6 7.9 66 3.1 ENE 11 15 6 8 1023.4 1023.5 0.0
26/11:30am 12.5 10.0 8.2 75 2.1 E 11 13 6 7 1024.1 1024.2 0.0
26/11:00am 11.8 9.5 9.0 83 1.4 NE 11 17 6 9 1024.8 1024.9 0.0
26/10:30am 9.5 7.4 8.3 92 0.6 NNE 9 13 5 7 1025.4 1025.5 0.0
26/10:00am 7.6 4.6 7.6 100 0.0 NE 13 15 7 8 1025.6 1025.7 0.0
26/09:47am 6.8 4.4 6.8 100 0.0 NE 9 11 5 6 1025.8 1025.9 0.0
26/09:42am 6.8 4.7 6.8 100 0.0 NE 7 11 4 6 1025.8 1025.9 0.0
26/09:30am 6.2 4.2 6.2 100 0.0 NNE 6 9 3 5 1026.0 1026.1 0.0
26/09:00am 4.8 2.9 4.8 100 0.0 N 4 7 2 4 1026.2 1026.3 0.2
26/08:30am 4.6 1.7 4.6 100 0.0 NNE 9 11 5 6 1026.3 1026.4 0.2
26/08:00am 3.9 1.2 3.9 100 0.0 N 7 11 4 6 1025.9 1026.0 0.2
26/07:30am 3.9 0.9 3.9 100 0.0 NW 9 11 5 6 1025.9 1026.0 0.2
26/07:00am 4.3 1.3 4.3 100 0.0 NNW 9 11 5 6 1025.7 1025.8 0.2
26/06:45am 4.3 1.0 4.3 100 0.0 NW 11 13 6 7 1025.4 1025.5 0.2
26/06:30am 4.7 2.2 4.7 100 0.0 WNW 7 9 4 5 1024.9 1025.0 0.2
26/06:25am 4.7 2.2 4.7 100 0.0 WNW 7 9 4 5 1024.8 1024.9 0.2
26/06:23am 4.7 2.2 4.7 100 0.0 WNW 7 9 4 5 1024.8 1024.9 0.2
26/06:22am 4.7 2.2 4.7 100 0.0 WNW 7 9 4 5 1024.8 1024.9 0.2
26/06:00am 4.4 2.4 4.4 100 0.0 WNW 4 7 2 4 1024.8 1024.9 0.2
26/05:57am 4.3 1.9 4.3 100 0.0 WNW 6 9 3 5 1024.9 1025.0 0.2
26/05:51am 4.3 1.9 4.3 100 0.0 WNW 6 9 3 5 1024.9 1025.0 0.2
26/05:45am 4.1 1.5 4.1 100 0.0 WNW 7 9 4 5 1024.9 1025.0 0.2
26/05:30am 4.7 1.8 4.7 100 0.0 WNW 9 11 5 6 1024.9 1025.0 0.2
26/05:00am 6.2 4.2 6.2 100 0.0 NW 6 9 3 5 1024.5 1024.6 0.2
26/04:30am 6.4 4.2 6.4 100 0.0 NW 7 9 4 5 1024.1 1024.2 0.2
26/04:13am 6.4 3.9 6.4 100 0.0 NW 9 13 5 7 1024.1 1024.2 0.2
26/04:09am 6.4 3.5 6.4 100 0.0 NW 11 13 6 7 1024.1 1024.2 0.2
26/04:00am 6.3 3.0 6.3 100 0.0 NNW 13 17 7 9 1024.2 1024.3 0.2
26/03:42am 6.4 3.1 6.4 100 0.0 N 13 15 7 8 1024.1 1024.2 0.2
26/03:30am 6.7 3.8 6.7 100 0.0 NNW 11 15 6 8 1024.1 1024.2 0.2
26/03:11am 6.7 4.2 6.7 100 0.0 NW 9 11 5 6 1024.4 1024.5 0.2
26/03:00am 6.6 4.5 6.6 100 0.0 NW 7 9 4 5 1024.7 1024.8 0.2
26/02:57am 6.6 4.5 6.6 100 0.0 NW 7 9 4 5 1024.7 1024.8 0.2
26/02:53am 6.6 4.5 6.6 100 0.0 NW 7 9 4 5 1024.7 1024.8 0.2
26/02:39am 6.4 4.2 6.3 99 0.0 NW 7 9 4 5 1024.7 1024.8 0.2
26/02:30am 6.6 4.1 6.6 100 0.0 NW 9 11 5 6 1024.7 1024.8 0.2
26/02:17am 6.6 4.1 6.5 99 0.0 NW 9 11 5 6 1024.7 1024.8 0.0
26/02:04am 6.4 3.8 6.3 99 0.0 NW 9 11 5 6 1024.8 1024.9 0.0
26/02:00am 6.2 3.6 6.1 99 0.0 NW 9 11 5 6 1024.7 1024.8 0.0
26/01:54am 6.2 3.6 6.1 99 0.0 NW 9 15 5 8 1024.6 1024.7 0.0
26/01:47am 5.9 2.9 5.8 99 0.0 NW 11 15 6 8 1024.8 1024.9 0.0
26/01:30am 5.4 3.0 5.1 98 0.1 NW 7 11 4 6 1025.0 1025.1 0.0
26/01:00am 6.4 4.2 6.0 97 0.2 NW 7 11 4 6 1025.3 1025.4 0.0
26/12:30am 6.3 3.7 5.9 97 0.2 NW 9 11 5 6 1025.3 1025.4 0.0
26/12:00am 7.2 4.3 6.6 96 0.3 NW 11 15 6 8 1025.4 1025.5 0.0
 
Date/Time
EST
Temp
°C
App
Temp
°C
Dew
Point
°C
Rel
Hum
%
Delta-T
°C
Wind Press
QNH
hPa
Press
MSL
hPa
Rain since
9am
mm
Dir  Spd
km/h
Gust
km/h
Spd
kts
Gust
kts
25/11:30pm 7.4 5.0 6.8 96 0.3 WNW 9 13 5 7 1025.5 1025.6 0.0
25/11:00pm 7.5 5.1 6.8 95 0.3 NW 9 13 5 7 1025.4 1025.5 0.0
25/10:30pm 7.8 4.6 6.9 94 0.4 WNW 13 17 7 9 1025.5 1025.6 0.0
25/10:00pm 7.6 5.6 6.9 95 0.3 WNW 7 9 4 5 1025.4 1025.5 0.0
25/09:30pm 8.4 6.0 7.0 91 0.7 WNW 9 9 5 5 1025.2 1025.3 0.0
25/09:00pm 8.8 6.4 7.1 89 0.8 WNW 9 11 5 6 1025.3 1025.4 0.0
25/08:30pm 9.5 8.5 7.4 87 1.0 SSE 2 7 1 4 1025.2 1025.3 0.0
25/08:00pm 9.8 8.1 7.6 86 1.0 SSE 6 7 3 4 1024.8 1024.9 0.0
25/07:30pm 10.4 8.1 7.6 83 1.3 S 9 11 5 6 1024.9 1025.0 0.0
25/07:00pm 11.0 8.8 7.7 80 1.6 SSE 9 11 5 6 1024.8 1024.9 0.0
25/06:30pm 11.0 8.8 7.7 80 1.6 SE 9 13 5 7 1024.7 1024.8 0.0
25/06:00pm 11.4 8.7 7.5 77 1.9 SSE 11 13 6 7 1024.5 1024.6 0.0
25/05:30pm 12.2 9.9 7.5 73 2.3 SE 9 11 5 6 1024.2 1024.3 0.0
25/05:00pm 12.8 10.1 7.3 69 2.7 SSE 11 13 6 7 1023.8 1023.9 0.0
25/04:30pm 13.9 10.9 7.7 66 3.1 SE 13 17 7 9 1023.6 1023.7 0.0
25/04:00pm 14.3 10.8 7.4 63 3.4 SE 15 20 8 11 1023.8 1023.9 0.0
25/03:30pm 14.5 11.0 7.3 62 3.6 SE 15 20 8 11 1024.0 1024.1 0.0
25/03:00pm 14.7 10.9 7.5 62 3.6 SE 17 24 9 13 1024.0 1024.1 0.0
25/02:30pm 14.4 10.2 7.5 63 3.4 SE 19 24 10 13 1023.8 1023.9 0.0
25/02:00pm 14.4 10.7 7.9 65 3.2 SE 17 24 9 13 1023.9 1024.0 0.0
25/01:30pm 14.1 9.7 7.4 64 3.3 ESE 20 26 11 14 1024.2 1024.3 0.0
25/01:00pm 14.1 9.9 7.6 65 3.2 ESE 19 28 10 15 1024.4 1024.5 0.0
25/12:30pm 13.6 9.9 7.8 68 2.9 SE 17 24 9 13 1024.7 1024.8 0.0
25/12:00pm 13.2 8.5 7.6 69 2.7 SE 22 30 12 16 1025.1 1025.2 0.0
25/11:30am 13.0 8.6 7.5 69 2.7 SSE 20 32 11 17 1025.6 1025.7 0.0
25/11:00am 12.4 7.9 7.1 70 2.5 SE 20 28 11 15 1026.0 1026.1 0.0
25/10:30am 11.4 8.4 7.7 78 1.8 SSE 13 19 7 10 1026.2 1026.3 0.0
25/10:00am 10.1 7.2 8.2 88 0.9 S 13 17 7 9 1026.3 1026.4 0.0
25/09:30am 8.9 6.4 8.0 94 0.4 SSW 11 15 6 8 1026.3 1026.4 0.0
25/09:00am 7.7 5.7 7.3 97 0.2 W 7 9 4 5 1025.8 1025.9 0.2
25/08:30am 6.8 3.9 6.7 99 0.0 W 11 13 6 7 1025.6 1025.7 0.2
25/08:00am 5.9 3.2 5.8 99 0.0 W 9 9 5 5 1025.4 1025.5 0.2
25/07:30am 5.2 2.8 5.1 99 0.0 W 7 9 4 5 1025.1 1025.2 0.2
25/07:00am 5.5 2.4 5.4 99 0.0 WNW 11 13 6 7 1024.9 1025.0 0.2
25/06:30am 5.7 3.0 5.7 100 0.0 W 9 11 5 6 1024.9 1025.0 0.2
25/06:00am 5.3 1.7 5.2 99 0.0 W 13 15 7 8 1024.8 1024.9 0.2
25/05:30am 5.6 2.9 5.5 99 0.0 W 9 11 5 6 1024.9 1025.0 0.2
25/05:00am 5.2 3.0 5.1 99 0.0 W 6 9 3 5 1024.9 1025.0 0.0
25/04:30am 6.2 3.6 6.1 99 0.0 W 9 11 5 6 1024.9 1025.0 0.0
25/04:00am 6.1 3.1 6.0 99 0.0 WSW 11 13 6 7 1024.5 1024.6 0.0
25/03:30am 5.9 2.9 5.8 99 0.0 WSW 11 13 6 7 1024.7 1024.8 0.0
25/03:00am 5.8 2.7 5.7 99 0.0 SW 11 13 6 7 1024.7 1024.8 0.0

Other formats

Comma delimited format used in spreadsheet applications
http://www.bom.gov.au/fwo/IDV60801/IDV60801.95866.axf

JavaScript Object Notation format (JSON) in row-major order
http://www.bom.gov.au/fwo/IDV60801/IDV60801.95866.json

Data quality

Most of these data are generated automatically and are frequently updated. Quality checks on data are not normally performed. It is possible for incorrect values to appear. Refer to information at About Latest Weather Observations and please check the disclaimer before using these data.